»·PEaware :: N2RF KSAN-KPSP

N2RF :: KSAN-KPSP

FLIGHT INFORMATION

Flight Status: Arrived
Operator: Privately registered:
United States
More flights under this callsign
Pilot: Max W. (2591)
Aircraft: SOCATA TBM-900
(TBM9)
More flights by this aircraft type
Origin: KSAN San Diego Intl-Lindbergh
United States
Destination: KPSP Palm Springs Intl
United States
More flights between these airports :: More routes between these airports
Route: BRDR7 JLI V208 TRM
File this flight plan on PilotEdge
Remarks: GOOD EVENING GOLDSY. PLEASURE TO HAVE THE BEST CANADAIN CONTROLLER IN THE BIZ
Altitude:
(Current/Filed)
13,000ft
Speed:
(Current/Filed)
250kts
Departed: 09-Oct-19 04:49 PM
Arrived: 09-Oct-19 05:16 PM
Distance/Time
Traveled:
74nm/0:27
Distance/Time
To Go:
Arrived

Flight Plot

Page will automatically refresh every two minutes.


Map Options




Map Legend


Flown Route
Filed Route
Departure Airport
Arrival Airport
Navaid (VOR, NDB)
Fix

Horizontal Profiles

Position Reports

Time Latitude Longitude Heading Altitude Ground
Speed
09-Oct-19 16:04 32.732042 -117.176582 194 23ft 0kts
09-Oct-19 16:05 32.732018 -117.176590 194 23ft 0kts
09-Oct-19 16:06 32.731998 -117.176595 194 23ft 0kts
09-Oct-19 16:07 32.731998 -117.176595 194 23ft 0kts
09-Oct-19 16:08 32.731998 -117.176595 194 23ft 0kts
09-Oct-19 16:09 32.731998 -117.176595 194 23ft 0kts
09-Oct-19 16:10 32.731998 -117.176595 194 23ft 0kts
09-Oct-19 16:11 32.731998 -117.176595 194 23ft 0kts
09-Oct-19 16:12 32.731998 -117.176595 194 23ft 0kts
09-Oct-19 16:13 32.731998 -117.176595 194 23ft 0kts
09-Oct-19 16:14 32.731998 -117.176595 194 23ft 0kts
09-Oct-19 16:15 32.731998 -117.176595 194 23ft 0kts
09-Oct-19 16:16 32.731998 -117.176595 194 23ft 0kts
09-Oct-19 16:17 32.731998 -117.176595 194 23ft 0kts
09-Oct-19 16:18 32.731998 -117.176595 194 23ft 0kts
09-Oct-19 16:19 32.731998 -117.176595 194 23ft 0kts
09-Oct-19 16:20 32.731998 -117.176595 194 23ft 0kts
09-Oct-19 16:21 32.731998 -117.176595 194 23ft 0kts
09-Oct-19 16:22 32.731998 -117.176595 194 23ft 0kts
09-Oct-19 16:24 32.731998 -117.176595 194 23ft 0kts
09-Oct-19 16:25 32.731998 -117.176595 194 23ft 0kts
09-Oct-19 16:26 32.731998 -117.176595 194 23ft 0kts
09-Oct-19 16:27 32.731998 -117.176595 194 23ft 0kts
09-Oct-19 16:28 32.731998 -117.176595 194 23ft 0kts
09-Oct-19 16:29 32.731998 -117.176595 194 23ft 0kts
09-Oct-19 16:30 32.731998 -117.176595 194 23ft 0kts
09-Oct-19 16:31 32.731998 -117.176595 194 23ft 0kts
09-Oct-19 16:32 32.731998 -117.176595 194 23ft 0kts
09-Oct-19 16:33 32.731998 -117.176595 194 23ft 0kts
09-Oct-19 16:34 32.731998 -117.176595 194 23ft 0kts
09-Oct-19 16:35 32.731998 -117.176595 194 23ft 0kts
09-Oct-19 16:36 32.731998 -117.176595 194 23ft 0kts
09-Oct-19 16:37 32.731998 -117.176595 194 23ft 0kts
09-Oct-19 16:38 32.731998 -117.176595 194 23ft 0kts
09-Oct-19 16:39 32.731998 -117.176595 194 23ft 0kts
09-Oct-19 16:40 32.731998 -117.176595 194 23ft 0kts
09-Oct-19 16:41 32.731998 -117.176595 194 23ft 0kts
09-Oct-19 16:42 32.731998 -117.176595 194 23ft 0kts
09-Oct-19 16:43 32.731998 -117.176595 194 23ft 0kts
09-Oct-19 16:43 32.731998 -117.176595 194 23ft 0kts
09-Oct-19 16:44 32.731956 -117.176862 241 22ft 12kts
09-Oct-19 16:46 32.731889 -117.176292 208 25ft 0kts
09-Oct-19 16:47 32.731717 -117.176344 187 24ft 10kts
09-Oct-19 16:47 32.730376 -117.176552 285 20ft 40kts
09-Oct-19 16:48 32.738760 -117.209901 287 1637ft 126kts
09-Oct-19 16:49 32.755408 -117.248392 301 4351ft 134kts
09-Oct-19 16:51 32.791168 -117.247243 41 7579ft 158kts
09-Oct-19 16:51 32.811709 -117.210538 52 9746ft 164kts
09-Oct-19 16:52 32.836134 -117.164642 50 12110ft 167kts
09-Oct-19 16:53 32.865912 -117.108703 52 13044ft 248kts
09-Oct-19 16:54 32.905776 -117.033150 53 13007ft 280kts
09-Oct-19 16:55 32.947721 -116.953599 53 12999ft 284kts
09-Oct-19 16:56 32.989791 -116.873681 54 12999ft 284kts
09-Oct-19 16:57 33.031632 -116.794001 54 12999ft 283kts
09-Oct-19 16:58 33.073276 -116.714530 54 12999ft 282kts
09-Oct-19 16:59 33.114605 -116.635490 55 13001ft 282kts
09-Oct-19 17:00 33.163978 -116.565309 32 12994ft 277kts
09-Oct-19 17:01 33.225343 -116.512259 33 12925ft 266kts
09-Oct-19 17:02 33.284818 -116.460543 33 12834ft 263kts
09-Oct-19 17:03 33.343974 -116.409005 33 12765ft 261kts
09-Oct-19 17:04 33.403646 -116.356940 33 12221ft 275kts
09-Oct-19 17:05 33.465757 -116.302621 34 11248ft 282kts
09-Oct-19 17:06 33.528967 -116.247248 34 10250ft 281kts
09-Oct-19 17:07 33.592143 -116.191803 34 9247ft 281kts
09-Oct-19 17:08 33.652136 -116.195931 331 8127ft 217kts
09-Oct-19 17:09 33.703759 -116.229992 331 7104ft 208kts
09-Oct-19 17:10 33.737424 -116.279183 281 5748ft 201kts
09-Oct-19 17:11 33.745870 -116.340891 280 4018ft 199kts
09-Oct-19 17:12 33.762339 -116.400601 297 2945ft 178kts
09-Oct-19 17:13 33.785774 -116.454673 300 1595ft 194kts
09-Oct-19 17:14 33.819682 -116.498768 322 548ft 85kts
09-Oct-19 17:15 33.828645 -116.509056 273 480ft 14kts
09-Oct-19 17:16 33.828551 -116.509268 51 480ft 0kts
09-Oct-19 17:20 33.828552 -116.509270 51 480ft 0kts
09-Oct-19 17:21 33.828552 -116.509270 51 480ft 0kts
09-Oct-19 17:22 33.828552 -116.509270 51 480ft 0kts
09-Oct-19 17:23 33.828552 -116.509270 51 480ft 0kts

Navigation Log

Ident Type
Flight plan parsing failed, navigation log unavailable